createdAt,value
2023-02-16T00:01:03.290Z,-0.10
2023-02-16T00:03:38.402Z,-0.10
2023-02-16T00:06:05.747Z,-0.10
2023-02-16T00:08:32.680Z,-0.10
2023-02-16T00:11:18.780Z,-0.20
2023-02-16T00:13:47.652Z,-0.20
2023-02-16T00:16:19.470Z,-0.30
2023-02-16T00:18:47.338Z,-0.40
2023-02-16T00:21:15.615Z,-0.40
2023-02-16T00:23:43.314Z,-0.50
2023-02-16T00:26:15.957Z,-0.50
2023-02-16T00:28:43.728Z,-0.60
2023-02-16T00:31:17.692Z,-0.60
2023-02-16T00:33:44.936Z,-0.70
2023-02-16T00:36:12.424Z,-0.70
2023-02-16T00:38:39.381Z,-0.70
2023-02-16T00:41:27.306Z,-0.80
2023-02-16T00:43:54.975Z,-0.80
2023-02-16T00:46:22.382Z,-0.80
2023-02-16T00:48:49.349Z,-0.80
2023-02-16T00:51:25.595Z,-0.80
2023-02-16T00:53:53.216Z,-0.90
2023-02-16T00:56:21.563Z,-0.90
2023-02-16T00:58:52.552Z,-1.00
2023-02-16T01:01:24.021Z,-1.00
2023-02-16T01:03:51.082Z,-1.10
2023-02-16T01:06:36.765Z,-1.20
2023-02-16T01:09:34.492Z,-1.20
2023-02-16T01:12:08.090Z,-1.30
2023-02-16T01:14:35.223Z,-1.40
2023-02-16T01:17:02.436Z,-1.40
2023-02-16T01:19:29.588Z,-1.40
2023-02-16T01:21:56.814Z,-1.30
2023-02-16T01:24:23.779Z,-1.30
2023-02-16T01:26:51.492Z,-1.30
2023-02-16T01:29:21.276Z,-1.30
2023-02-16T01:31:48.614Z,-1.30
2023-02-16T01:34:16.123Z,-1.30
2023-02-16T01:36:46.388Z,-1.40
2023-02-16T01:39:16.790Z,-1.40
2023-02-16T01:42:13.626Z,-1.40
2023-02-16T01:45:13.518Z,-1.40
2023-02-16T01:47:49.572Z,-1.30
2023-02-16T01:50:19.450Z,-1.30
2023-02-16T01:52:55.614Z,-1.20
2023-02-16T01:55:38.206Z,-1.20
2023-02-16T01:58:06.879Z,-1.20
2023-02-16T02:00:52.294Z,-1.30
2023-02-16T02:03:53.105Z,-1.30
2023-02-16T02:06:23.938Z,-1.30
2023-02-16T02:09:01.715Z,-1.20
2023-02-16T02:11:40.447Z,-1.20
2023-02-16T02:14:28.874Z,-1.20
2023-02-16T02:16:56.873Z,-1.20
2023-02-16T02:19:24.332Z,-1.30
2023-02-16T02:22:29.066Z,-1.30
2023-02-16T02:25:41.549Z,-1.40
2023-02-16T02:28:31.409Z,-1.40
2023-02-16T02:31:13.627Z,-1.50
2023-02-16T02:33:58.412Z,-1.50
2023-02-16T02:36:51.363Z,-1.60
2023-02-16T02:39:49.054Z,-1.70
2023-02-16T02:42:33.387Z,-1.80
2023-02-16T02:45:09.622Z,-1.90
2023-02-16T02:47:45.461Z,-2.00
2023-02-16T02:51:10.631Z,-2.00
2023-02-16T02:53:50.366Z,-2.00
2023-02-16T02:56:36.792Z,-2.00
2023-02-16T02:59:27.255Z,-2.00
2023-02-16T03:01:59.983Z,-2.10
2023-02-16T03:04:31.243Z,-2.20
2023-02-16T03:07:01.816Z,-2.30
2023-02-16T03:09:29.232Z,-2.30
2023-02-16T03:12:16.794Z,-2.30
2023-02-16T03:14:51.215Z,-2.20
2023-02-16T03:17:40.180Z,-2.20
2023-02-16T03:20:29.655Z,-2.20
2023-02-16T03:23:16.760Z,-2.20
2023-02-16T03:26:03.460Z,-2.20
2023-02-16T03:28:51.816Z,-2.20
2023-02-16T03:31:23.445Z,-2.20
2023-02-16T03:33:55.176Z,-2.20
2023-02-16T03:36:30.550Z,-2.20
2023-02-16T03:38:58.780Z,-2.20
2023-02-16T03:41:30.985Z,-2.30
2023-02-16T03:43:57.934Z,-2.30
2023-02-16T03:46:25.291Z,-2.40
2023-02-16T03:48:52.328Z,-2.40
2023-02-16T03:51:19.573Z,-2.40
2023-02-16T03:53:46.633Z,-2.40
2023-02-16T03:56:13.870Z,-2.30
2023-02-16T03:58:40.872Z,-2.20
2023-02-16T04:01:08.266Z,-2.20
2023-02-16T04:03:35.239Z,-2.20
2023-02-16T04:06:02.467Z,-2.20
2023-02-16T04:08:29.481Z,-2.20
2023-02-16T04:10:57.602Z,-2.20
2023-02-16T04:13:24.718Z,-2.20
2023-02-16T04:15:52.049Z,-2.20
2023-02-16T04:18:18.993Z,-2.10
2023-02-16T04:20:46.580Z,-2.10
2023-02-16T04:23:13.562Z,-2.00
2023-02-16T04:25:40.818Z,-2.00
2023-02-16T04:28:07.767Z,-1.90
2023-02-16T04:30:35.153Z,-1.90
2023-02-16T04:33:02.219Z,-1.90
2023-02-16T04:35:29.486Z,-1.90
2023-02-16T04:37:56.440Z,-2.00
2023-02-16T04:40:23.656Z,-2.00
2023-02-16T04:42:50.672Z,-2.10
2023-02-16T04:45:18.001Z,-2.10
2023-02-16T04:47:45.019Z,-2.00
2023-02-16T04:50:12.477Z,-2.00
2023-02-16T04:52:39.607Z,-2.00
2023-02-16T04:55:09.674Z,-2.00
2023-02-16T04:57:38.289Z,-2.00
2023-02-16T05:00:08.210Z,-2.00
2023-02-16T05:02:35.261Z,-2.00
2023-02-16T05:05:02.520Z,-2.10
2023-02-16T05:07:29.520Z,-2.20
2023-02-16T05:09:56.850Z,-2.20
2023-02-16T05:12:42.560Z,-2.20
2023-02-16T05:15:09.844Z,-2.20
2023-02-16T05:17:36.823Z,-2.10
2023-02-16T05:20:04.439Z,-2.10
2023-02-16T05:22:34.621Z,-2.10
2023-02-16T05:25:02.569Z,-2.10
2023-02-16T05:27:30.813Z,-2.10
2023-02-16T05:29:58.742Z,-2.00
2023-02-16T05:32:26.260Z,-1.90
2023-02-16T05:34:53.488Z,-1.70
2023-02-16T05:37:20.625Z,-1.60
2023-02-16T05:39:47.903Z,-1.50
2023-02-16T05:42:14.887Z,-1.60
2023-02-16T05:44:42.115Z,-1.60
2023-02-16T05:47:09.180Z,-1.40
2023-02-16T05:49:36.449Z,-1.20
2023-02-16T05:52:03.557Z,-1.30
2023-02-16T05:54:30.828Z,-1.30
2023-02-16T05:56:57.816Z,-1.20
2023-02-16T05:59:25.189Z,-1.20
2023-02-16T06:01:52.723Z,-1.20
2023-02-16T06:04:20.893Z,-1.20
2023-02-16T06:06:48.037Z,-1.20
2023-02-16T06:09:15.403Z,-1.10
2023-02-16T06:11:42.906Z,-1.10
2023-02-16T06:14:14.432Z,-1.00
2023-02-16T06:16:43.539Z,-1.10
2023-02-16T06:19:11.822Z,-1.00
2023-02-16T06:21:40.458Z,-0.90
2023-02-16T06:24:09.664Z,-0.80
2023-02-16T06:26:37.003Z,-0.70
2023-02-16T06:29:05.174Z,-0.60
2023-02-16T06:31:33.919Z,-0.50
2023-02-16T06:34:03.867Z,-0.50
2023-02-16T06:36:31.076Z,-0.40
2023-02-16T06:38:58.307Z,-0.40
2023-02-16T06:41:40.894Z,-0.30
2023-02-16T06:44:12.550Z,-0.20
2023-02-16T06:46:41.077Z,-0.10
2023-02-16T06:49:11.196Z,-0.10
2023-02-16T06:51:38.139Z,0.00
2023-02-16T06:54:05.545Z,0.10
2023-02-16T06:56:32.784Z,0.10
2023-02-16T06:59:00.580Z,0.20
2023-02-16T07:01:27.804Z,0.20
2023-02-16T07:03:56.872Z,0.30
2023-02-16T07:06:26.379Z,0.40
2023-02-16T07:08:54.120Z,0.50
2023-02-16T07:11:21.828Z,0.60
2023-02-16T07:13:49.158Z,0.80
2023-02-16T07:16:16.634Z,1.00
2023-02-16T07:18:44.032Z,0.90
2023-02-16T07:21:11.088Z,1.00
2023-02-16T07:23:38.471Z,1.10
2023-02-16T07:26:05.587Z,1.00
2023-02-16T07:28:33.026Z,1.20
2023-02-16T07:31:15.596Z,1.30
2023-02-16T07:33:43.137Z,1.50
2023-02-16T07:36:11.348Z,1.70
2023-02-16T07:38:39.188Z,2.00
2023-02-16T07:41:09.354Z,2.20
2023-02-16T07:43:38.116Z,2.30
2023-02-16T07:46:05.633Z,2.50
2023-02-16T07:48:33.129Z,2.60
2023-02-16T07:51:00.302Z,2.80
2023-02-16T07:53:27.704Z,2.60
2023-02-16T07:55:54.765Z,2.70
2023-02-16T07:58:28.137Z,2.70
2023-02-16T08:01:10.894Z,2.50
2023-02-16T08:03:39.082Z,2.50
2023-02-16T08:06:07.839Z,2.40
2023-02-16T08:08:36.261Z,2.60
2023-02-16T08:11:29.657Z,2.80
2023-02-16T08:14:00.126Z,3.00
2023-02-16T08:16:29.094Z,3.20
2023-02-16T08:18:58.038Z,3.50
2023-02-16T08:21:28.457Z,3.80
2023-02-16T08:24:06.688Z,3.60
2023-02-16T08:26:39.414Z,3.70
2023-02-16T08:29:10.092Z,4.00
2023-02-16T08:31:38.438Z,4.10
2023-02-16T08:34:06.124Z,4.10
2023-02-16T08:36:38.563Z,4.10
2023-02-16T08:39:08.914Z,4.10
2023-02-16T08:41:37.180Z,4.40
2023-02-16T08:44:06.298Z,4.30
2023-02-16T08:46:35.144Z,4.50
2023-02-16T08:49:03.156Z,4.80
2023-02-16T08:51:34.743Z,4.90
2023-02-16T08:54:05.798Z,4.90
2023-02-16T08:56:35.916Z,5.00
2023-02-16T08:59:03.595Z,4.70
2023-02-16T09:01:30.903Z,4.50
2023-02-16T09:03:58.985Z,4.30
2023-02-16T09:06:25.961Z,4.60
2023-02-16T09:08:55.887Z,4.90
2023-02-16T09:11:24.373Z,4.80
2023-02-16T09:13:51.766Z,4.70
2023-02-16T09:16:22.631Z,4.70
2023-02-16T09:18:51.105Z,5.00
2023-02-16T09:21:25.623Z,5.10
2023-02-16T09:23:55.813Z,5.10
2023-02-16T09:26:24.917Z,5.30
2023-02-16T09:28:53.727Z,5.60
2023-02-16T09:31:28.841Z,5.60
2023-02-16T09:34:20.382Z,5.40
2023-02-16T09:36:48.146Z,5.50
2023-02-16T09:39:17.084Z,5.40
2023-02-16T09:42:01.477Z,5.40
2023-02-16T09:45:07.544Z,6.10
2023-02-16T09:47:40.890Z,6.50
2023-02-16T09:50:43.894Z,6.30
2023-02-16T09:53:22.583Z,6.20
2023-02-16T09:56:28.300Z,6.00
2023-02-16T09:59:26.491Z,6.10
2023-02-16T10:02:14.381Z,6.20
2023-02-16T10:04:48.585Z,6.50
2023-02-16T10:07:40.299Z,6.40
2023-02-16T10:10:08.612Z,6.80
2023-02-16T10:12:41.895Z,7.40
2023-02-16T10:15:09.449Z,8.00
2023-02-16T10:17:37.728Z,7.50
2023-02-16T10:20:21.553Z,7.20
2023-02-16T10:23:06.201Z,7.80
2023-02-16T10:25:50.384Z,7.40
2023-02-16T10:28:52.968Z,6.90
2023-02-16T10:31:28.869Z,6.80
2023-02-16T10:34:24.697Z,7.40
2023-02-16T10:37:44.409Z,7.00
2023-02-16T10:40:25.864Z,6.90
2023-02-16T10:43:11.781Z,7.20
2023-02-16T10:45:51.924Z,7.00
2023-02-16T10:48:21.113Z,7.30
2023-02-16T10:50:53.954Z,7.80
2023-02-16T10:53:46.626Z,7.70
2023-02-16T10:56:32.179Z,7.70
2023-02-16T10:59:00.777Z,7.40
2023-02-16T11:01:42.873Z,7.60
2023-02-16T11:04:48.608Z,7.70
2023-02-16T11:07:18.865Z,8.10
2023-02-16T11:09:50.942Z,8.10
2023-02-16T11:12:29.370Z,8.20
2023-02-16T11:15:14.038Z,8.20
2023-02-16T11:17:58.694Z,7.90
2023-02-16T11:20:51.405Z,8.00
2023-02-16T11:23:25.601Z,8.00
2023-02-16T11:26:03.105Z,8.20
2023-02-16T11:28:36.863Z,8.10
2023-02-16T11:31:18.797Z,8.30
2023-02-16T11:34:29.275Z,8.10
2023-02-16T11:37:15.463Z,8.00
2023-02-16T11:39:50.552Z,8.30
2023-02-16T11:42:44.682Z,8.20
2023-02-16T11:45:26.463Z,8.60
2023-02-16T11:47:57.382Z,8.50
2023-02-16T11:50:38.753Z,8.80
2023-02-16T11:53:12.165Z,9.30
2023-02-16T11:55:43.721Z,8.90
2023-02-16T11:58:29.299Z,8.80
2023-02-16T12:01:14.848Z,9.00
2023-02-16T12:04:27.454Z,9.40
2023-02-16T12:07:23.119Z,9.10
2023-02-16T12:10:17.590Z,9.30
2023-02-16T12:13:23.720Z,8.70
2023-02-16T12:16:25.966Z,8.60
2023-02-16T12:19:43.307Z,8.90
2023-02-16T12:22:47.789Z,8.70
2023-02-16T12:26:03.779Z,8.90
2023-02-16T12:29:21.588Z,9.50
2023-02-16T12:32:30.198Z,9.80
2023-02-16T12:35:31.702Z,9.50
2023-02-16T12:38:42.309Z,9.50
2023-02-16T12:41:40.136Z,9.80
2023-02-16T12:44:33.717Z,9.40
2023-02-16T12:47:26.636Z,9.10
2023-02-16T12:50:29.453Z,8.90
2023-02-16T12:53:20.386Z,9.20
2023-02-16T12:55:56.155Z,9.20
2023-02-16T12:59:21.989Z,9.30
2023-02-16T13:02:15.676Z,8.90
2023-02-16T13:05:38.706Z,9.20
2023-02-16T13:08:45.637Z,9.00
2023-02-16T13:11:43.790Z,9.10
2023-02-16T13:14:38.040Z,9.10
2023-02-16T13:21:50.798Z,8.70
2023-02-16T13:24:25.280Z,8.60
2023-02-16T13:27:13.935Z,8.20
2023-02-16T13:30:06.016Z,8.30
2023-02-16T13:32:41.357Z,8.40
2023-02-16T13:35:26.110Z,8.40
2023-02-16T13:38:06.680Z,8.30
2023-02-16T13:40:37.337Z,8.40
2023-02-16T13:43:22.519Z,8.50
2023-02-16T13:45:54.257Z,8.80
2023-02-16T13:48:26.010Z,8.60
2023-02-16T13:51:20.880Z,8.60
2023-02-16T13:54:06.994Z,8.40
2023-02-16T13:56:37.037Z,8.20
2023-02-16T13:59:22.360Z,8.00
2023-02-16T14:01:54.458Z,7.90
2023-02-16T14:04:27.040Z,7.90
2023-02-16T14:07:03.405Z,8.00
2023-02-16T14:09:33.658Z,7.80
2023-02-16T14:12:14.342Z,7.80
2023-02-16T14:14:44.206Z,7.80
2023-02-16T14:17:22.828Z,7.70
2023-02-16T14:20:05.262Z,7.80
2023-02-16T14:22:50.719Z,7.70
2023-02-16T14:25:22.923Z,7.70
2023-02-16T14:27:56.797Z,7.70
2023-02-16T14:30:32.677Z,7.70
2023-02-16T14:33:17.052Z,7.70
2023-02-16T14:35:47.885Z,7.70
2023-02-16T14:38:26.888Z,7.60
2023-02-16T14:40:55.705Z,7.60
2023-02-16T14:43:25.753Z,7.50
2023-02-16T14:45:59.031Z,7.40
2023-02-16T14:48:48.578Z,7.40
2023-02-16T14:51:43.489Z,7.30
2023-02-16T14:54:37.330Z,7.30
2023-02-16T14:57:15.663Z,7.20
2023-02-16T14:59:48.274Z,7.10
2023-02-16T15:02:30.893Z,7.20
2023-02-16T15:04:58.367Z,7.10
2023-02-16T15:07:28.305Z,7.10
2023-02-16T15:09:58.439Z,7.10
2023-02-16T15:12:30.490Z,7.00
2023-02-16T15:15:04.482Z,7.00
2023-02-16T15:17:39.321Z,6.90
2023-02-16T15:20:11.534Z,6.90
2023-02-16T15:22:43.840Z,6.80
2023-02-16T15:25:34.933Z,6.80
2023-02-16T15:28:26.522Z,6.80
2023-02-16T15:31:00.058Z,6.70
2023-02-16T15:33:44.128Z,6.70
2023-02-16T15:36:14.669Z,6.60
2023-02-16T15:38:54.078Z,6.60
2023-02-16T15:41:28.039Z,6.50
2023-02-16T15:43:55.526Z,6.40
2023-02-16T15:46:33.455Z,6.40
2023-02-16T15:49:21.499Z,6.40
2023-02-16T15:51:49.437Z,6.30
2023-02-16T15:54:31.987Z,6.30
2023-02-16T15:57:36.796Z,6.30
2023-02-16T16:00:19.325Z,6.20
2023-02-16T16:02:52.285Z,6.20
2023-02-16T16:05:27.260Z,6.10
2023-02-16T16:07:55.253Z,6.10
2023-02-16T16:10:29.673Z,6.10
2023-02-16T16:13:03.280Z,6.00
2023-02-16T16:15:34.026Z,6.00
2023-02-16T16:18:02.682Z,5.90
2023-02-16T16:20:32.837Z,5.90
2023-02-16T16:23:01.585Z,5.90
2023-02-16T16:25:30.938Z,5.80
2023-02-16T16:27:58.220Z,5.80
2023-02-16T16:30:32.447Z,5.70
2023-02-16T16:33:11.995Z,5.80
2023-02-16T16:35:42.914Z,5.80
2023-02-16T16:38:27.706Z,5.80
2023-02-16T16:41:03.854Z,5.70
2023-02-16T16:43:37.085Z,5.70
2023-02-16T16:46:24.511Z,5.70
2023-02-16T16:49:00.127Z,5.70
2023-02-16T16:51:31.432Z,5.70
2023-02-16T16:54:04.212Z,5.60
2023-02-16T16:56:36.973Z,5.70
2023-02-16T16:59:04.873Z,5.70
2023-02-16T17:01:32.255Z,5.70
2023-02-16T17:03:59.898Z,5.60
2023-02-16T17:06:27.650Z,5.60
2023-02-16T17:08:55.432Z,5.60
2023-02-16T17:11:32.890Z,5.70
2023-02-16T17:14:14.607Z,5.60
2023-02-16T17:16:44.971Z,5.60
2023-02-16T17:19:13.722Z,5.60
2023-02-16T17:21:41.393Z,5.50
2023-02-16T17:24:10.149Z,5.50
2023-02-16T17:26:38.133Z,5.50
2023-02-16T17:29:06.787Z,5.50
2023-02-16T17:31:35.347Z,5.50
2023-02-16T17:34:02.341Z,5.40
2023-02-16T17:36:29.632Z,5.40
2023-02-16T17:38:56.621Z,5.40
2023-02-16T17:41:29.449Z,5.40
2023-02-16T17:43:56.439Z,5.30
2023-02-16T17:46:24.794Z,5.20
2023-02-16T17:48:55.090Z,5.10
2023-02-16T17:51:24.703Z,5.10
2023-02-16T17:53:52.014Z,5.10
2023-02-16T17:56:21.630Z,5.10
2023-02-16T17:58:49.090Z,5.00
2023-02-16T18:01:17.523Z,4.90
2023-02-16T18:03:44.691Z,4.90
2023-02-16T18:06:16.877Z,4.90
2023-02-16T18:08:44.471Z,4.80
2023-02-16T18:11:12.485Z,4.80
2023-02-16T18:13:40.176Z,4.70
2023-02-16T18:16:08.447Z,4.80
2023-02-16T18:18:39.661Z,4.80
2023-02-16T18:21:07.572Z,4.80
2023-02-16T18:23:34.895Z,4.70
2023-02-16T18:26:03.229Z,4.70
2023-02-16T18:28:32.874Z,4.70
2023-02-16T18:31:01.125Z,4.70
2023-02-16T18:33:28.482Z,4.70
2023-02-16T18:35:57.625Z,4.70
2023-02-16T18:38:25.145Z,4.70
2023-02-16T18:40:54.489Z,4.70
2023-02-16T18:43:22.446Z,4.70
2023-02-16T18:45:50.121Z,4.80
2023-02-16T18:48:18.787Z,4.80
2023-02-16T18:50:46.151Z,4.70
2023-02-16T18:53:13.767Z,4.70
2023-02-16T18:55:41.006Z,4.80
2023-02-16T18:58:08.640Z,4.80
2023-02-16T19:00:36.884Z,4.80
2023-02-16T19:03:04.369Z,4.80
2023-02-16T19:05:32.603Z,4.80
2023-02-16T19:07:59.633Z,4.80
2023-02-16T19:10:27.457Z,4.80
2023-02-16T19:12:54.413Z,4.80
2023-02-16T19:15:21.917Z,4.80
2023-02-16T19:17:49.206Z,4.70
2023-02-16T19:20:18.568Z,4.70
2023-02-16T19:22:49.267Z,4.70
2023-02-16T19:25:16.970Z,4.80
2023-02-16T19:27:44.665Z,4.70
2023-02-16T19:30:12.367Z,4.70
2023-02-16T19:32:41.176Z,4.80
2023-02-16T19:35:09.938Z,4.80
2023-02-16T19:37:36.936Z,4.80
2023-02-16T19:40:06.807Z,4.80
2023-02-16T19:42:33.993Z,4.90
2023-02-16T19:45:01.712Z,4.90
2023-02-16T19:47:28.685Z,4.90
2023-02-16T19:49:57.180Z,5.00
2023-02-16T19:52:24.205Z,5.00
2023-02-16T19:54:51.510Z,5.00
2023-02-16T19:57:18.653Z,5.00
2023-02-16T19:59:45.934Z,5.00
2023-02-16T20:02:14.774Z,5.00
2023-02-16T20:04:43.424Z,4.90
2023-02-16T20:07:10.534Z,4.90
2023-02-16T20:09:37.908Z,4.90
2023-02-16T20:12:05.803Z,4.90
2023-02-16T20:14:33.040Z,4.90
2023-02-16T20:17:00.030Z,4.80
2023-02-16T20:19:27.320Z,4.70
2023-02-16T20:21:54.284Z,4.60
2023-02-16T20:24:21.572Z,4.70
2023-02-16T20:26:49.991Z,4.60
2023-02-16T20:29:17.450Z,4.60
2023-02-16T20:31:53.358Z,4.60
2023-02-16T20:34:21.456Z,4.50
2023-02-16T20:36:48.789Z,4.50
2023-02-16T20:39:16.307Z,4.40
2023-02-16T20:41:43.731Z,4.40
2023-02-16T20:44:12.189Z,4.40
2023-02-16T20:46:40.046Z,4.40
2023-02-16T20:49:07.773Z,4.40
2023-02-16T20:51:35.454Z,4.40
2023-02-16T20:54:03.424Z,4.40
2023-02-16T20:56:30.741Z,4.40
2023-02-16T20:58:58.668Z,4.40
2023-02-16T21:01:38.258Z,4.30
2023-02-16T21:04:07.017Z,4.30
2023-02-16T21:06:34.885Z,4.30
2023-02-16T21:09:03.365Z,4.30
2023-02-16T21:11:30.800Z,4.30
2023-02-16T21:13:58.532Z,4.30
2023-02-16T21:16:25.996Z,4.20
2023-02-16T21:18:53.260Z,4.10
2023-02-16T21:21:20.350Z,4.20
2023-02-16T21:23:51.156Z,4.20
2023-02-16T21:26:19.726Z,4.20
2023-02-16T21:28:47.095Z,4.10
2023-02-16T21:31:17.621Z,4.10
2023-02-16T21:33:45.310Z,4.00
2023-02-16T21:36:15.404Z,4.10
2023-02-16T21:38:43.980Z,4.00
2023-02-16T21:41:26.193Z,4.10
2023-02-16T21:43:56.468Z,4.10
2023-02-16T21:46:24.243Z,4.10
2023-02-16T21:48:51.907Z,4.10
2023-02-16T21:51:21.934Z,4.00
2023-02-16T21:53:49.259Z,4.00
2023-02-16T21:56:22.100Z,4.00
2023-02-16T21:58:49.524Z,4.00
2023-02-16T22:01:22.344Z,4.00
2023-02-16T22:03:50.282Z,4.00
2023-02-16T22:06:17.222Z,4.10
2023-02-16T22:08:44.427Z,4.00
2023-02-16T22:11:13.662Z,4.10
2023-02-16T22:13:41.365Z,4.10
2023-02-16T22:16:18.024Z,4.00
2023-02-16T22:18:45.289Z,4.00
2023-02-16T22:21:12.710Z,4.00
2023-02-16T22:23:40.060Z,4.00
2023-02-16T22:26:08.082Z,4.20
2023-02-16T22:28:36.956Z,4.10
2023-02-16T22:31:08.672Z,4.20
2023-02-16T22:33:35.941Z,4.20
2023-02-16T22:36:11.754Z,4.20
2023-02-16T22:38:38.952Z,4.20
2023-02-16T22:41:06.957Z,4.30
2023-02-16T22:43:34.630Z,4.30
2023-02-16T22:46:12.309Z,4.30
2023-02-16T22:48:40.267Z,4.30
2023-02-16T22:51:10.594Z,4.40
2023-02-16T22:53:37.851Z,4.30
2023-02-16T22:56:07.460Z,4.30
2023-02-16T22:58:35.384Z,4.30
2023-02-16T23:01:02.410Z,4.30
2023-02-16T23:03:31.133Z,4.20
2023-02-16T23:05:58.070Z,4.20
2023-02-16T23:08:25.385Z,4.20
2023-02-16T23:11:01.379Z,4.20
2023-02-16T23:13:30.631Z,4.30
2023-02-16T23:16:02.403Z,4.20
2023-02-16T23:18:29.621Z,4.20
2023-02-16T23:20:56.576Z,4.20
2023-02-16T23:23:23.845Z,4.30
2023-02-16T23:25:50.770Z,4.30
2023-02-16T23:28:17.976Z,4.20
2023-02-16T23:30:46.783Z,4.20
2023-02-16T23:33:14.467Z,4.30
2023-02-16T23:35:42.601Z,4.30
2023-02-16T23:38:14.076Z,4.30
2023-02-16T23:40:42.318Z,4.30
2023-02-16T23:43:10.497Z,4.30
2023-02-16T23:45:37.837Z,4.30
2023-02-16T23:48:05.152Z,4.30
2023-02-16T23:50:32.084Z,4.20
2023-02-16T23:52:59.351Z,4.30
2023-02-16T23:55:26.258Z,4.30
2023-02-16T23:57:53.481Z,4.30
